WEATHER DATA

YESTERDAY
Time Temp. Dewp. Hum. Wind dir Wind speed Wind gust Bar. 1h Prec. 24h Prec.
00:02 13.1 13.1 100 199 1.4 2.5 1010.5 0.0000 0.0000
00:21 13 13 100 192 1.4 2.8 1010.7 0.0000 0.0000
00:32 13 13 100 199 1.4 2.5 1010.7 0.0000 0.0000
00:42 13 13 100 196 1.7 3.3 1010.6 0.0000 0.0000
00:52 13 13 100 199 1.7 3.3 1010.6 0.0000 0.0000
01:02 12.9 12.9 100 198 1.7 3.6 1010.6 0.2020 0.2000
01:08 12.9 12.9 100 199 1.7 2.8 1010.5 0.3030 0.3000
01:18 12.9 12.9 100 196 1.4 2.5 1010.5 0.4040 0.4000
01:28 12.9 12.9 100 195 1.4 2.2 1010.5 0.4040 0.4000
01:38 12.9 12.9 100 194 1.4 2.5 1010.4 0.4040 0.4000
01:48 12.9 12.9 100 195 1.1 1.7 1010.4 0.4040 0.4000
01:58 13 13 100 204 1.1 1.7 1010.4 0.2020 0.4000
02:08 13 13 100 195 1.1 1.7 1010.5 0.1010 0.4000
02:18 13 13 100 195 0.8 1.7 1010.6 0.0000 0.4000
02:29 13.1 13.1 100 186 0.8 1.4 1010.6 0.0000 0.4000
02:39 13.1 13.1 100 181 0.8 1.4 1010.7 0.1010 0.5000
02:48 13.1 13.1 100 186 1.1 1.7 1010.7 0.1010 0.5000
02:59 13.2 13.2 100 194 0.8 1.4 1010.7 0.1010 0.5000
03:09 13.3 13.3 100 200 0.8 1.7 1010.8 0.1010 0.5000
03:19 13.4 13.4 100 205 0.8 1.4 1010.8 0.1010 0.5000
03:29 13.5 13.5 100 207 0.8 1.1 1010.9 0.1010 0.5000
03:39 13.6 13.6 100 213 0.3 1.1 1010.9 0.0000 0.5000
03:49 13.9 13.9 100 225 0.3 0.8 1010.9 0.0000 0.5000
03:59 14.4 14.4 100 354 0.8 2.5 1010.9 0.0000 0.5000
04:10 14.7 14.7 100 4 0.8 1.7 1011 0.0000 0.5000
04:20 14.8 14.8 100 8 0.8 1.4 1011 0.0000 0.5000
04:30 14.9 14.9 100 25 0.3 1.1 1011.1 0.0000 0.5000
04:39 14.9 14.9 100 10 0.8 1.7 1011.1 0.0000 0.5000
04:50 15 15 100 11 0.8 1.4 1011.1 0.0000 0.5000
05:00 15 15 100 18 0.8 1.7 1011.1 0.1010 0.6000
05:10 14.9 14.9 100 8 0.8 1.7 1011.1 0.1010 0.6000
05:20 14.9 14.9 100 14 0.8 1.7 1011.2 0.1010 0.6000
05:30 14.9 14.9 100 3 0.3 1.4 1011.3 0.1010 0.6000
05:40 14.9 14.9 100 14 0.8 1.4 1011.3 0.2020 0.7000
05:50 14.8 14.8 100 333 0.3 1.7 1011.3 0.1010 0.7000
06:01 14.8 14.8 100 0 0.3 1.4 1011.4 0.2020 0.8000
06:11 14.8 14.8 100 10 0.3 1.7 1011.5 0.2020 0.8000
06:16 14.8 14.8 100 357 0.8 1.7 1011.4 0.3030 0.9000
06:26 14.7 14.7 100 1 0.8 1.7 1011.5 0.2020 0.9000
06:36 14.7 14.7 100 11 0.8 2.2 1011.5 0.3030 1.0000
06:46 14.6 14.6 100 25 0.8 2.2 1011.7 0.3030 1.0000
06:56 14.5 14.5 100 10 1.1 2.5 1011.7 0.3030 1.1000
07:06 14.4 14.4 100 0 1.1 2.5 1011.9 0.3030 1.2000
07:17 14.3 14.3 100 6 1.1 2.2 1012 0.4040 1.3000
07:26 14.3 14.3 100 358 0.8 2.2 1012.1 0.3030 1.3000
07:36 14.2 14.2 100 35 0.3 1.4 1012.2 0.3030 1.3000
07:47 14.2 14.2 100 11 0.3 1.4 1012.2 0.3030 1.3000
07:57 14.2 14.2 100 330 0.3 1.4 1012.2 0.1010 1.3000
08:07 14.2 14.2 100 355 0.3 1.1 1012.3 0.0000 1.3000
08:16 14.2 14.2 100 324 0.3 1.1 1012.5 0.0000 1.3000
08:27 14.2 14.2 100 351 0.3 1.4 1012.6 0.0000 1.3000
08:37 14.2 14.2 100 315 0.3 0.8 1012.7 0.0000 1.3000
08:47 14.2 14.2 100 26 0.3 1.1 1012.8 0.0000 1.3000
08:58 14.2 14.2 100 45 0.3 0.8 1012.8 0.0000 1.3000
09:08 14.3 14.3 100 30 0.3 0.8 1012.9 0.0000 1.3000
09:17 14.3 14.3 100 322 0.3 1.1 1013 0.0000 1.3000
09:27 14.4 14.4 100 0 0.8 1013.1 0.0000 1.3000
09:38 14.6 14.6 100 18 0.3 1.1 1013.2 0.0000 1.3000
09:48 14.8 14.8 100 53 0.3 1.1 1013.4 0.0000 1.3000
09:58 15 15 100 315 0.3 1.1 1013.5 0.0000 1.3000
10:08 15.2 15.2 100 315 0.3 1.4 1013.6 0.0000 1.3000
10:18 15.2 15.2 100 341 0.3 2.2 1013.7 0.0000 1.3000
10:28 15.3 15.3 100 0 0.3 1.7 1013.6 0.0000 1.3000
10:38 15.4 15.4 100 341 0.3 1.4 1013.8 0.0000 1.3000
10:49 15.4 15.4 100 5 0.3 1.4 1013.8 0.0000 1.3000
10:58 15.5 15.5 100 351 0.8 1.7 1013.8 0.1010 1.4000
11:08 15.6 15.6 100 344 1.4 3.3 1013.9 0.1010 1.4000
11:19 15.8 15.8 100 2 1.1 2.5 1014.1 0.1010 1.4000
11:29 15.8 15.8 100 350 0.8 1.4 1014.1 0.1010 1.4000
11:39 15.9 15.9 100 325 0.3 1.7 1014 0.1010 1.4000
11:49 16.3 16.3 100 337 0.8 2.5 1014.1 0.1010 1.4000
11:59 16.1 16.1 100 8 0.3 1.4 1014.1 0.0000 1.4000
12:08 16.2 16.2 100 135 0.3 1.4 1014.2 0.0000 1.4000
12:19 16.9 16.9 100 33 0.3 1.4 1014.3 0.0000 1.4000
12:29 17.6 17.6 100 0 1.1 2.5 1014.3 0.0000 1.4000
12:40 17 17 100 347 0.3 1.7 1014.4 0.0000 1.4000
12:50 17 17 100 225 0.3 1.7 1014.4 0.0000 1.4000
12:59 17.8 17.8 100 338 0.8 2.5 1014.5 0.0000 1.4000
13:10 18 18 100 355 1.1 2.5 1014.4 0.0000 1.4000
13:20 18.1 18.1 100 323 0.8 2.2 1014.4 0.0000 1.4000
13:30 18.4 18.4 100 315 0.8 2.5 1014.4 0.0000 1.4000
13:40 18.7 18.7 100 300 0.8 2.5 1014.4 0.0000 1.4000
13:50 18.8 18.5 98 353 1.4 3.3 1014.4 0.0000 1.4000
14:00 18.4 17.9 97 354 1.1 2.5 1014.4 0.0000 1.4000
14:10 18.4 17.9 97 3 0.8 2.2 1014.5 0.0000 1.4000
14:21 18.7 18.5 99 307 0.8 1.7 1014.6 0.0000 1.4000
14:31 19.1 18.8 98 206 1.4 2.8 1014.5 0.0000 1.4000
14:40 19.4 19.1 98 206 0.8 2.5 1014.4 0.0000 1.4000
14:50 19.3 18.6 96 225 0.3 1.4 1014.3 0.0000 1.4000
15:01 19.3 18.6 96 270 0.3 2.5 1014.3 0.0000 1.4000
15:11 19.6 18.9 96 248 0.8 1.7 1014.4 0.0000 1.4000
15:21 19.4 18.4 94 330 0.8 2.2 1014.4 0.0000 1.4000
15:31 19.8 18.8 94 202 1.1 2.5 1014.4 0.0000 1.4000
15:41 20 18.7 92 141 0.8 1.7 1014.4 0.0000 1.4000
15:51 19.6 18.3 92 225 0.3 1.4 1014.3 0.0000 1.4000
16:01 19.5 18 91 0 0.3 1.4 1014.2 0.0000 1.4000
16:12 19.4 18.1 92 180 0.3 1.4 1014.2 0.0000 1.4000
16:21 19.6 18.3 92 170 0.3 1.1 1014.2 0.0000 1.4000
16:31 19.6 18.1 91 0 0.3 1.1 1014.3 0.0000 1.4000
16:42 19.9 18.6 92 353 0.3 1.1 1014.3 0.0000 1.4000
16:52 19.6 18.1 91 0 0.3 1.1 1014.3 0.0000 1.4000
17:02 19.3 18 92 334 0.8 2.2 1014.3 0.0000 1.4000
17:12 19 17.7 92 270 0.3 1.4 1014.4 0.0000 1.4000
17:22 18.7 17.2 91 341 0.3 1.1 1014.4 0.0000 1.4000
17:32 18.3 17 92 315 0.3 1.1 1014.4 0.0000 1.4000
17:42 18 16.7 92 4 0.3 1.1 1014.4 0.0000 1.4000
17:52 17.7 16.6 93 355 0.3 1.1 1014.5 0.0000 1.4000
18:03 17.8 17 95 0.3 0.8 1014.6 0.0000 1.4000
18:12 17.8 16.8 94 0 0.3 0.8 1014.6 0.0000 1.4000
18:22 17.7 16.7 94 18 0.3 0.8 1014.4 0.0000 1.4000
18:33 17.4 16.4 94 356 0.3 1.1 1014.4 0.0000 1.4000
18:43 17.1 16.3 95 341 0.3 0.8 1014.6 0.0000 1.4000
18:53 16.8 16 95 2 0.3 1.1 1014.6 0.0000 1.4000
19:02 16.4 15.6 95 339 0.3 0.8 1014.6 0.0000 1.4000
19:13 16.1 15.6 97 353 0.3 0.8 1014.8 0.0000 1.4000
19:23 15.8 15.3 97 5 0.3 0.8 1014.7 0.0000 1.4000
19:33 15.6 15.3 98 16 0.3 1.1 1014.7 0.0000 1.4000
19:43 15.6 15.4 99 0 0.8 1014.7 0.0000 1.4000
19:54 15.5 15.3 99 0 0.3 1014.7 0.0000 1.4000
20:03 15.4 15.2 99 0 0.3 1014.8 0.0000 1.4000
20:13 15.4 15.4 100 0 0.3 1014.8 0.0000 1.4000
20:24 15.4 15.4 100 0 0.3 1014.8 0.0000 1.4000
20:34 15.4 15.4 100 0 0.3 1014.8 0.0000 1.4000
20:44 15.3 15.3 100 0 0.8 1014.9 0.0000 1.4000
20:54 15.2 15.2 100 6 0.3 0.8 1015 0.0000 1.4000
21:04 15.1 15.1 100 0 0.3 0.8 1015.1 0.1010 1.5000
21:06 15.1 15.1 100 341 0.3 0.8 1015.1 0.3030 1.7000
21:17 14.9 14.9 100 7 0.3 1.1 1015.1 0.4040 1.8000
21:27 14.7 14.7 100 5 0.8 1.7 1015 0.4040 1.8000
21:37 14.5 14.5 100 4 0.3 1.4 1014.9 0.4040 1.8000
21:47 14.4 14.4 100 358 0.8 1.4 1014.8 0.4040 1.8000
21:57 14.3 14.3 100 350 0.8 1.4 1014.9 0.3030 1.8000
22:07 14.3 14.3 100 354 0.3 0.8 1015 0.0000 1.8000
22:17 14.3 14.3 100 135 0.3 0.8 1015 0.0000 1.8000
22:28 14.3 14.3 100 126 0.8 1.1 1015 0.0000 1.8000
22:38 14.3 14.3 100 138 0.3 1.4 1015 0.0000 1.8000
22:49 14.2 14.2 100 178 0.8 1.1 1014.9 0.3030 2.1000
23:09 14.1 14.1 100 162 1.4 3.3 1014.7 1.3130 3.1000

DAY STATISTIC

2020-09-29
TEMPERATURE
AVERAGE
15.7
HIGH
20.0
15:41
LOW
12.9
01:02
PRESSURE
AVERAGE
1013.1
HIGH
1015.1
21:04
LOW
1010.4
01:38
DEWPOINT
AVERAGE
15.4
HIGH
19.1
14:40
LOW
12.9
01:02
HUMIDITY
AVERAGE
99
HIGH
100
00:02
LOW
91
16:01
WIND SPEED
AVERAGE
0.6
HIGH
1.7
00:42
WIND GUST
AVERAGE
1.6
HIGH
3.6
01:02
WIND DIRECTION
PREVAILING
N
46.4%
N
46.4
NE
5.8
E
0.0
SE
3.6
S
17.4
SW
6.5
W
2.2
NW
11.6
PRECIPITATION
RAIN HOUR
1.3
RAIN DAY
3.1
TEMPERATURE (°C)
LOW
12.9
HIGH
20.0
AVERAGE
15.7
PRESSURE (hpa)
LOW
1010.4
HIGH
1015.1
AVERAGE
1013.1
DEVICE